Latest Weather Observations for Lucas Heights

IDN60901

Issued at 8:11 am EST Thursday 29 September 2016 (issued every 10 minutes, with the page automatically refreshed every 10 minutes)

About weather observations | Map of Sydney area stations | Latest observations for Sydney area | Other Formats
Station Details ID: 066023 Name: LUCAS HEIGHTS AWS Lat: -34.05 Lon: 150.98 Height: 140.0 m
Data from the previous 72 hours. | See also: Recent months for locations in New South Wales
Date/Time
EST
Temp
°C
App
Temp
°C
Dew
Point
°C
Rel
Hum
%
Delta-T
°C
Wind Press
QNH
hPa
Press
MSL
hPa
Rain since
9am
mm
Dir  Spd
km/h
Gust
km/h
Spd
kts
Gust
kts
29/08:00am 11.5 9.8 9.7 89 0.9 NNE 9 13 5 7 1001.1 - 1.6
29/07:45am 11.6 10.2 9.6 87 1.0 NE 7 13 4 7 1001.1 - 1.1
29/07:30am 11.8 10.4 9.7 87 1.1 N 7 15 4 8 1001.6 - 0.7
29/07:15am 11.9 9.4 9.7 86 1.1 NW 13 20 7 11 1002.0 - 0.4
29/07:00am 12.1 9.6 9.8 86 1.2 NW 13 20 7 11 1002.1 - 0.0
29/06:45am 12.2 10.5 9.8 85 1.2 N 9 15 5 8 1002.1 - 0.0
29/06:30am 12.2 11.0 9.4 83 1.4 NNW 6 9 3 5 1002.1 - 0.0
29/06:15am 12.5 11.7 9.5 82 1.5 N 4 7 2 4 1002.3 - 0.0
29/06:00am 12.8 10.3 9.7 81 1.6 NW 13 20 7 11 1002.8 - 0.0
29/05:45am 12.6 9.7 9.6 82 1.5 NW 15 20 8 11 1003.0 - 0.0
29/05:30am 12.6 10.5 9.6 82 1.5 NNW 11 15 6 8 1002.9 - 0.0
29/05:15am 12.6 10.2 10.0 84 1.3 NNW 13 19 7 10 1003.1 - 0.0
29/05:00am 11.5 9.6 9.1 85 1.2 NNW 9 19 5 10 1003.0 - 0.0
29/04:45am 11.1 9.5 8.8 86 1.1 NNW 7 11 4 6 1003.1 - 0.0
29/04:30am 10.5 8.7 8.0 84 1.2 N 7 13 4 7 1003.3 - 0.0
29/04:15am 10.3 8.1 7.8 84 1.2 N 9 15 5 8 1003.5 - 0.0
29/04:00am 9.9 7.6 7.3 84 1.2 NNE 9 15 5 8 1003.7 - 0.0
29/03:45am 9.8 7.0 7.1 83 1.3 NNE 11 15 6 8 1004.1 - 0.0
29/03:30am 10.4 7.7 7.5 82 1.4 - 11 17 6 9 1004.5 - 0.0
29/03:15am 10.4 7.4 7.7 83 1.3 N 13 17 7 9 1004.9 - 0.0
29/03:00am 10.0 7.7 7.5 84 1.2 NNW 9 17 5 9 1005.2 - 0.0
29/02:45am 9.1 7.0 6.5 84 1.2 NNW 7 11 4 6 1005.5 - 0.0
29/02:30am 9.2 7.0 6.2 81 1.4 NNW 7 11 4 6 1005.8 - 0.0
29/02:15am 9.7 7.1 6.2 79 1.6 NNW 9 15 5 8 1006.3 - 0.0
29/02:00am 11.3 8.4 6.7 73 2.2 NNW 11 15 6 8 1006.7 - 0.0
29/01:45am 12.1 9.0 7.3 72 2.3 NW 13 17 7 9 1007.1 - 0.0
29/01:30am 11.9 8.8 7.3 73 2.2 WNW 13 17 7 9 1007.4 - 0.0
29/01:15am 12.0 9.1 8.1 77 1.9 NW 13 19 7 10 1007.6 - 0.0
29/01:00am 10.0 6.9 7.1 82 1.4 NW 13 19 7 10 1007.9 - 0.0
29/12:45am 9.4 6.5 6.5 82 1.4 NNW 11 15 6 8 1007.9 - 0.0
29/12:30am 9.5 6.6 6.6 82 1.4 NNW 11 15 6 8 1008.1 - 0.0
29/12:15am 9.2 6.6 6.1 81 1.4 NNW 9 13 5 7 1008.3 - 0.0
29/12:00am 9.5 6.9 6.2 80 1.5 NW 9 17 5 9 1008.6 - 0.0
 
Date/Time
EST
Temp
°C
App
Temp
°C
Dew
Point
°C
Rel
Hum
%
Delta-T
°C
Wind Press
QNH
hPa
Press
MSL
hPa
Rain since
9am
mm
Dir  Spd
km/h
Gust
km/h
Spd
kts
Gust
kts
28/11:45pm 9.9 7.3 6.3 78 1.7 NW 9 15 5 8 1008.8 - 0.0
28/11:30pm 10.7 7.7 6.1 73 2.2 NW 11 15 6 8 1009.1 - 0.0
28/11:15pm 11.8 8.7 7.1 73 2.3 NW 13 17 7 9 1009.4 - 0.0
28/11:00pm 11.0 7.8 6.7 75 2.0 NW 13 15 7 8 1009.6 - 0.0
28/10:45pm 10.8 7.6 6.8 76 1.9 NNW 13 15 7 8 1009.7 - 0.0
28/10:30pm 10.5 7.2 6.6 77 1.8 NNW 13 15 7 8 1009.7 - 0.0
28/10:15pm 10.9 8.4 6.7 75 2.0 NNW 9 17 5 9 1009.8 - 0.0
28/10:00pm 11.3 9.2 6.7 73 2.2 NNW 7 11 4 6 1009.9 - 0.0
28/09:45pm 11.6 9.5 6.7 72 2.3 N 7 11 4 6 1010.1 - 0.0
28/09:30pm 11.9 9.5 6.8 71 2.4 N 9 13 5 7 1010.2 - 0.0
28/09:15pm 11.8 8.9 6.7 71 2.4 NNE 11 15 6 8 1010.4 - 0.0
28/09:00pm 12.0 8.7 6.6 69 2.6 NNE 13 15 7 8 1010.3 - 0.0
28/08:45pm 12.3 9.0 6.5 67 2.8 NE 13 15 7 8 1010.4 - 0.0
28/08:30pm 12.5 9.6 6.3 66 3.0 NNE 11 15 6 8 1010.6 - 0.0
28/08:15pm 13.0 10.1 6.3 64 3.2 NNE 11 15 6 8 1010.6 - 0.0
28/08:00pm 13.8 10.5 6.4 61 3.6 NE 13 17 7 9 1010.5 - 0.0
28/07:45pm 13.6 10.3 6.2 61 3.6 NE 13 17 7 9 1010.4 - 0.0
28/07:30pm 13.8 10.8 6.0 59 3.7 NE 11 15 6 8 1010.4 - 0.0
28/07:15pm 14.2 11.2 6.2 58 3.9 NE 11 15 6 8 1010.3 - 0.0
28/07:00pm 14.5 11.6 6.4 58 3.9 NE 11 15 6 8 1010.3 - 0.0
28/06:45pm 14.6 11.7 6.3 57 4.0 NE 11 17 6 9 1010.2 - 0.0
28/06:30pm 15.0 11.7 6.2 55 4.3 ENE 13 17 7 9 1010.1 - 0.0
28/06:15pm 15.3 11.9 6.0 54 4.5 ENE 13 17 7 9 1010.1 - 0.0
28/06:00pm 15.8 12.0 5.7 51 4.9 ENE 15 22 8 12 1010.1 - 0.0
28/05:45pm 16.3 12.4 5.4 48 5.3 ENE 15 20 8 11 1010.2 - 0.0
28/05:30pm 16.9 13.0 5.5 47 5.5 ENE 15 24 8 13 1010.2 - 0.0
28/05:15pm 17.3 14.0 6.2 48 5.5 ENE 13 26 7 14 1010.1 - 0.0
28/05:00pm 17.2 13.2 6.6 49 5.3 E 17 24 9 13 1010.1 - 0.0
28/04:45pm 17.4 13.0 6.5 48 5.4 E 19 26 10 14 1010.2 - 0.0
28/04:30pm 17.7 13.4 6.9 49 5.4 ENE 19 30 10 16 1010.2 - 0.0
28/04:15pm 17.7 13.7 6.8 49 5.5 E 17 24 9 13 1010.3 - 0.0
28/04:00pm 18.0 14.0 6.7 47 5.7 E 17 24 9 13 1010.5 - 0.0
28/03:45pm 18.2 14.3 7.1 48 5.6 E 17 24 9 13 1010.6 - 0.0
28/03:30pm 18.3 14.8 7.4 49 5.5 E 15 24 8 13 1010.7 - 0.0
28/03:15pm 18.0 15.0 7.5 50 5.3 E 13 22 7 12 1010.9 - 0.0
28/03:00pm 18.3 14.8 7.2 48 5.6 E 15 26 8 14 1011.0 - 0.0
28/02:45pm 18.5 15.4 7.4 48 5.7 E 13 20 7 11 1011.1 - 0.0
28/02:30pm 18.7 15.3 7.6 48 5.7 E 15 24 8 13 1011.3 - 0.0
28/02:15pm 19.1 16.1 7.5 47 5.9 E 13 24 7 13 1011.5 - 0.0
28/02:00pm 19.1 16.7 7.0 45 6.1 ENE 9 20 5 11 1011.7 - 0.0
28/01:45pm 18.6 16.1 6.6 45 6.0 NE 9 19 5 10 1012.0 - 0.0
28/01:30pm 19.3 16.6 7.2 45 6.2 ENE 11 17 6 9 1012.3 - 0.0
28/01:15pm 18.4 15.7 7.3 48 5.6 NE 11 20 6 11 1012.5 - 0.0
28/01:00pm 17.7 15.4 5.5 44 6.0 E 7 17 4 9 1012.7 - 0.0
28/12:45pm 17.6 15.2 5.3 44 6.0 ESE 7 20 4 11 1012.8 - 0.0
28/12:30pm 17.5 14.6 4.9 43 6.1 SE 9 13 5 7 1012.9 - 0.0
28/12:15pm 18.1 14.8 4.6 41 6.5 SSE 11 17 6 9 1012.9 - 0.0
28/12:00pm 18.6 16.3 4.7 40 6.7 NE 6 13 3 7 1013.1 - 0.0
28/11:45am 18.6 15.4 4.9 40 6.6 ESE 11 17 6 9 1013.3 - 0.0
28/11:30am 18.2 15.5 3.9 38 6.8 E 7 15 4 8 1013.5 - 0.0
28/11:15am 18.1 15.4 3.7 38 6.8 ESE 7 13 4 7 1013.5 - 0.0
28/11:00am 17.7 14.9 3.2 38 6.8 SE 7 17 4 9 1013.6 - 0.0
28/10:45am 17.8 14.3 3.5 38 6.7 SE 11 19 6 10 1013.7 - 0.0
28/10:30am 17.5 13.6 3.2 38 6.6 SE 13 19 7 10 1013.9 - 0.0
28/10:15am 17.5 13.6 3.2 38 6.6 SE 13 20 7 11 1014.0 - 0.0
28/10:00am 17.4 13.8 2.8 37 6.7 S 11 19 6 10 1014.1 - 0.0
28/09:45am 17.4 13.8 2.9 38 6.7 SSE 11 20 6 11 1014.2 - 0.0
28/09:30am 17.4 14.4 4.0 41 6.3 S 9 17 5 9 1014.2 - 0.0
28/09:15am 16.9 14.4 5.0 45 5.7 S 7 17 4 9 1014.2 - 0.0
28/09:00am 16.4 14.4 6.2 51 5.0 SSW 6 9 3 5 1014.2 - 0.0
28/08:45am 15.2 12.9 5.8 53 4.5 SW 7 13 4 7 1014.2 - 0.0
28/08:30am 14.5 11.8 5.6 55 4.2 WSW 9 13 5 7 1014.3 - 0.0
28/08:15am 13.8 11.1 5.6 57 3.9 WSW 9 15 5 8 1014.3 - 0.0
28/08:00am 13.0 9.8 5.2 59 3.7 W 11 19 6 10 1014.4 - 0.0
28/07:45am 12.3 8.7 5.1 61 3.3 WSW 13 22 7 12 1014.5 - 0.0
28/07:30am 11.8 8.2 5.1 63 3.1 WSW 13 20 7 11 1014.3 - 0.0
28/07:15am 11.0 7.4 5.0 66 2.8 SW 13 20 7 11 1014.2 - 0.0
28/07:00am 10.2 5.8 4.7 68 2.5 SW 17 24 9 13 1014.0 - 0.0
28/06:45am 9.6 5.1 4.4 70 2.3 WSW 17 24 9 13 1013.9 - 0.0
28/06:30am 9.1 4.2 4.1 71 2.2 WSW 19 26 10 14 1013.8 - 0.0
28/06:15am 8.8 3.7 3.9 71 2.1 WSW 20 24 11 13 1013.7 - 0.0
28/06:00am 8.9 3.7 3.7 70 2.3 W 20 26 11 14 1013.5 - 0.0
28/05:45am 9.0 3.8 3.7 69 2.3 WSW 20 26 11 14 1013.3 - 0.0
28/05:30am 9.2 3.6 3.7 68 2.4 WSW 22 33 12 18 1013.2 - 0.0
28/05:15am 9.2 3.3 3.8 69 2.4 WSW 24 32 13 17 1013.0 - 0.0
28/05:00am 9.2 3.3 3.8 69 2.4 WSW 24 30 13 16 1013.1 - 0.0
28/04:45am 9.3 3.4 3.9 69 2.4 WSW 24 30 13 16 1013.2 - 0.0
28/04:30am 9.3 3.8 3.8 68 2.4 WSW 22 28 12 15 1013.2 - 0.0
28/04:15am 9.4 3.9 3.8 68 2.5 WSW 22 30 12 16 1013.2 - 0.0
28/04:00am 9.6 4.4 3.8 67 2.6 WSW 20 28 11 15 1013.2 - 0.0
28/03:45am 9.8 4.6 3.8 66 2.6 WSW 20 30 11 16 1013.0 - 0.0
28/03:30am 10.0 4.5 3.8 65 2.7 WSW 22 30 12 16 1012.9 - 0.0
28/03:15am 10.0 4.8 3.7 65 2.8 WSW 20 30 11 16 1012.9 - 0.0
28/03:00am 10.1 4.2 3.7 64 2.8 WSW 24 30 13 16 1012.9 - 0.0
28/02:45am 10.1 3.8 3.6 64 2.9 WSW 26 32 14 17 1012.7 - 0.0
28/02:30am 10.1 4.1 3.5 63 2.9 WSW 24 32 13 17 1012.7 - 0.0
28/02:15am 10.3 4.7 3.3 62 3.1 WSW 22 30 12 16 1012.7 - 0.0
28/02:00am 10.4 4.8 3.4 62 3.1 WSW 22 30 12 16 1012.7 - 0.0
28/01:45am 10.5 4.9 3.3 61 3.2 WSW 22 30 12 16 1012.8 - 0.0
28/01:30am 10.6 5.0 3.2 60 3.2 WSW 22 28 12 15 1012.9 - 0.0
28/01:15am 10.7 4.7 3.3 60 3.3 WSW 24 30 13 16 1013.0 - 0.0
28/01:00am 10.7 4.7 3.2 60 3.3 WSW 24 32 13 17 1013.1 - 0.0
28/12:45am 10.6 5.5 3.0 59 3.3 WSW 19 26 10 14 1013.0 - 0.0
28/12:30am 10.7 5.4 2.8 58 3.4 WSW 20 28 11 15 1013.1 - 0.0
28/12:15am 10.6 4.5 2.5 57 3.5 WSW 24 30 13 16 1013.0 - 0.0
28/12:00am 10.9 5.2 2.6 56 3.6 WSW 22 28 12 15 1013.0 - 0.0
 
Date/Time
EST
Temp
°C
App
Temp
°C
Dew
Point
°C
Rel
Hum
%
Delta-T
°C
Wind Press
QNH
hPa
Press
MSL
hPa
Rain since
9am
mm
Dir  Spd
km/h
Gust
km/h
Spd
kts
Gust
kts
27/11:45pm 11.0 5.2 2.5 56 3.7 WSW 22 30 12 16 1013.0 - 0.0
27/11:30pm 10.9 4.7 2.4 55 3.7 WSW 24 30 13 16 1013.1 - 0.0
27/11:15pm 10.8 5.4 2.3 55 3.7 WSW 20 26 11 14 1013.1 - 0.0
27/11:00pm 10.9 5.7 2.2 55 3.7 WSW 19 24 10 13 1013.0 - 0.0
27/10:45pm 10.8 5.5 2.0 54 3.8 WSW 19 24 10 13 1013.0 - 0.0
27/10:30pm 10.8 4.9 1.9 54 3.8 WSW 22 26 12 14 1013.0 - 0.0
27/10:15pm 11.0 5.5 1.9 53 3.9 WSW 20 26 11 14 1012.9 - 0.0
27/10:00pm 11.1 6.2 1.7 52 4.0 WSW 17 20 9 11 1012.9 - 0.0
27/09:45pm 11.3 6.3 1.6 51 4.1 WSW 17 20 9 11 1013.0 - 0.0
27/09:30pm 11.5 6.5 1.6 50 4.2 WSW 17 19 9 10 1012.9 - 0.0
27/09:15pm 11.6 6.6 1.6 50 4.3 WSW 17 19 9 10 1012.7 - 0.0
27/09:00pm 11.5 6.9 1.4 50 4.3 WSW 15 17 8 9 1012.6 - 0.0
27/08:45pm 11.7 7.1 1.3 49 4.4 WSW 15 19 8 10 1012.6 - 0.0
27/08:30pm 12.0 7.4 1.3 48 4.6 WSW 15 17 8 9 1012.5 - 0.0
27/08:15pm 12.2 7.6 1.3 47 4.6 WSW 15 19 8 10 1012.4 - 0.0
27/08:00pm 12.2 7.2 1.2 47 4.7 WSW 17 19 9 10 1012.2 - 0.0
27/07:45pm 12.6 8.3 1.1 45 4.9 WSW 13 17 7 9 1012.0 - 0.0
27/07:30pm 12.9 8.6 1.0 44 5.1 WSW 13 17 7 9 1011.8 - 0.0
27/07:15pm 13.4 8.7 0.9 42 5.3 WSW 15 20 8 11 1011.6 - 0.0
27/07:00pm 13.7 8.2 0.8 41 5.5 WSW 19 32 10 17 1011.3 - 0.0
27/06:45pm 14.0 8.0 0.8 40 5.7 W 22 32 12 17 1011.1 - 0.0
27/06:30pm 14.3 8.2 0.6 39 5.9 W 22 30 12 16 1010.8 - 0.0
27/06:15pm 14.7 9.0 0.3 37 6.1 W 20 28 11 15 1010.6 - 0.0
27/06:00pm 15.2 8.6 -0.1 35 6.5 WSW 24 39 13 21 1010.4 - 0.0
27/05:45pm 15.5 8.6 -0.1 34 6.7 WSW 26 41 14 22 1010.2 - 0.0
27/05:30pm 16.0 8.3 -0.3 33 7.0 W 30 48 16 26 1009.8 - 0.0
27/05:15pm 16.4 9.1 -0.2 32 7.1 W 28 57 15 31 1009.6 - 0.0
27/05:00pm 16.6 7.5 -0.4 31 7.3 W 37 56 20 30 1009.3 - 0.0
27/04:45pm 17.1 9.9 0.4 32 7.3 W 28 44 15 24 1009.0 - 0.0
27/04:30pm 17.3 9.3 0.3 31 7.4 WSW 32 54 17 29 1008.8 - 0.0
27/04:15pm 17.7 9.7 0.4 31 7.6 WSW 32 52 17 28 1008.5 - 0.0
27/04:00pm 17.5 8.9 -0.1 30 7.6 WSW 35 56 19 30 1008.3 - 0.0
27/03:45pm 17.9 9.5 -0.8 28 8.0 WSW 33 50 18 27 1008.0 - 0.0
27/03:30pm 19.0 11.2 -1.0 26 8.6 WSW 30 48 16 26 1007.7 - 0.0
27/03:15pm 19.0 10.7 -1.9 24 8.9 W 32 50 17 27 1007.5 - 0.0
27/03:00pm 19.0 8.9 -2.1 24 8.9 W 41 65 22 35 1007.3 - 0.0
27/02:45pm 19.2 9.5 -2.2 23 9.0 WSW 39 59 21 32 1007.1 - 0.0
27/02:30pm 19.3 9.2 -2.1 23 9.1 WSW 41 59 22 32 1006.9 - 0.0
27/02:15pm 19.8 11.3 -1.7 23 9.2 W 33 65 18 35 1006.8 - 0.0
27/02:00pm 19.6 11.3 -1.8 23 9.1 WSW 32 52 17 28 1006.7 - 0.0
27/01:45pm 19.8 11.3 -1.9 23 9.3 WSW 33 52 18 28 1006.7 - 0.0
27/01:30pm 20.0 9.5 -2.6 21 9.5 WSW 43 63 23 34 1006.6 - 0.0
27/01:15pm 20.5 12.2 -0.1 25 9.2 W 33 54 18 29 1006.4 - 0.0
27/01:00pm 20.3 11.2 1.7 29 8.6 W 39 57 21 31 1006.3 - 0.0
27/12:45pm 20.3 12.6 2.3 30 8.4 W 32 48 17 26 1006.2 - 0.0
27/12:30pm 20.6 13.1 3.6 32 8.2 W 32 46 17 25 1006.3 - 0.0
27/12:15pm 20.3 14.1 4.4 35 7.7 W 26 46 14 25 1006.4 - 0.0
27/12:00pm 19.4 15.3 6.1 42 6.6 W 17 37 9 20 1006.6 - 0.0
27/11:45am 19.2 14.5 6.2 42 6.5 W 20 35 11 19 1006.9 - 0.0
27/11:15am 19.1 15.5 6.8 44 6.2 NNW 15 24 8 13 1007.3 - 0.0
27/11:00am 18.9 15.3 6.6 44 6.2 NNW 15 24 8 13 1007.5 - 0.0
27/10:45am 18.6 14.9 6.4 45 6.1 NNW 15 22 8 12 1007.6 - 0.0
27/10:30am 18.5 15.2 6.4 45 6.0 NNW 13 20 7 11 1007.8 - 0.0
27/10:15am 18.1 14.4 6.2 45 5.9 N 15 24 8 13 1007.8 - 0.0
27/10:00am 17.7 14.0 6.3 47 5.7 N 15 24 8 13 1007.8 - 0.0
27/09:45am 17.1 13.0 6.1 48 5.4 N 17 26 9 14 1008.1 - 0.0
27/09:30am 16.6 12.9 6.3 50 5.1 NNE 15 26 8 14 1008.6 - 0.0
27/09:15am 16.0 13.5 6.7 54 4.6 N 9 22 5 12 1009.0 - 0.0
27/09:00am 15.1 12.2 6.5 56 4.2 N 11 20 6 11 1009.2 - 0.0
27/08:45am 14.2 10.8 6.0 58 3.9 N 13 20 7 11 1009.6 - 0.0
27/08:30am 13.6 10.6 6.0 60 3.6 N 11 20 6 11 1009.8 - 0.0
27/08:15am 12.8 10.1 5.8 62 3.3 N 9 17 5 9 1010.0 - 0.0
27/08:00am 11.8 9.1 5.7 66 2.9 - 9 20 5 11 1010.1 - 0.0
27/07:45am 10.9 7.4 5.3 68 2.6 N 13 22 7 12 1010.2 - 0.0
27/07:30am 10.2 6.2 5.1 70 2.3 NNW 15 22 8 12 1010.6 - 0.0
27/07:15am 9.0 4.6 4.6 74 2.0 NNW 17 22 9 12 1010.9 - 0.0
27/07:00am 8.6 3.7 4.3 74 1.9 NNW 19 26 10 14 1010.9 - 0.0
27/06:45am 8.7 3.8 4.1 73 2.0 NNW 19 24 10 13 1010.8 - 0.0
27/06:30am 8.8 3.7 4.1 72 2.1 NNW 20 26 11 14 1010.8 - 0.0
27/06:15am 8.8 3.9 4.0 72 2.1 NNW 19 22 10 12 1010.9 - 0.0
27/06:00am 8.6 4.0 3.7 71 2.1 NNW 17 24 9 13 1011.0 - 0.0
27/05:45am 8.7 4.1 3.8 71 2.1 NNW 17 24 9 13 1011.0 - 0.0
27/05:30am 8.6 4.4 3.7 71 2.1 NNW 15 20 8 11 1011.0 - 0.0
27/05:15am 9.2 5.3 3.6 68 2.4 NW 13 15 7 8 1010.9 - 0.0
27/05:00am 9.5 5.7 3.8 67 2.5 NW 13 15 7 8 1011.0 - 0.0
27/04:45am 9.4 5.2 4.0 69 2.4 NW 15 19 8 10 1011.2 - 0.0
27/04:30am 9.1 5.0 4.2 71 2.2 NW 15 17 8 9 1011.2 - 0.0
27/04:15am 8.1 4.3 4.0 75 1.8 NW 13 17 7 9 1011.2 - 0.0
27/04:00am 7.8 4.7 3.4 74 1.9 NW 9 11 5 6 1011.2 - 0.0
27/03:45am 8.5 5.7 3.4 70 2.2 NW 7 11 4 6 1011.2 - 0.0
27/03:30am 9.7 6.6 3.7 66 2.6 WNW 9 17 5 9 1011.1 - 0.0
27/03:15am 10.0 6.2 3.7 65 2.8 WNW 13 19 7 10 1011.4 - 0.0
27/03:00am 9.8 6.0 3.7 66 2.7 W 13 17 7 9 1011.4 - 0.0
27/02:45am 10.0 5.8 3.7 65 2.8 W 15 17 8 9 1011.5 - 0.0
27/02:30am 10.4 5.8 3.8 63 2.9 W 17 19 9 10 1011.8 - 0.0
27/02:15am 10.6 6.0 3.6 62 3.1 W 17 19 9 10 1011.9 - 0.0
27/02:00am 10.7 6.1 3.8 62 3.1 W 17 19 9 10 1012.0 - 0.0
27/01:45am 10.6 5.7 3.9 63 3.0 WSW 19 22 10 12 1012.0 - 0.0
27/01:30am 10.4 5.3 3.9 64 2.9 WSW 20 20 11 11 1012.1 - 0.0
27/01:15am 10.2 5.0 3.8 64 2.8 WSW 20 20 11 11 1012.1 - 0.0
27/01:00am 10.3 5.3 3.8 64 2.9 WSW 19 20 10 11 1012.3 - 0.0
27/12:45am 10.4 5.4 3.7 63 3.0 WSW 19 20 10 11 1012.5 - 0.0
27/12:30am 10.5 5.3 3.6 62 3.1 WSW 20 22 11 12 1012.7 - 0.0
27/12:15am 10.7 5.5 3.3 60 3.3 WSW 20 24 11 13 1012.8 - 0.0
27/12:00am 11.0 5.0 3.3 59 3.4 W 24 28 13 15 1012.8 - 0.0
 
Date/Time
EST
Temp
°C
App
Temp
°C
Dew
Point
°C
Rel
Hum
%
Delta-T
°C
Wind Press
QNH
hPa
Press
MSL
hPa
Rain since
9am
mm
Dir  Spd
km/h
Gust
km/h
Spd
kts
Gust
kts
26/11:45pm 11.6 6.5 4.1 60 3.4 W 20 26 11 14 1012.6 - 0.0
26/11:30pm 11.6 6.2 4.5 61 3.2 W 22 28 12 15 1012.5 - 0.0
26/11:15pm 11.7 6.9 4.5 61 3.3 W 19 24 10 13 1012.5 - 0.0
26/11:00pm 11.9 7.4 4.4 60 3.4 W 17 22 9 12 1012.6 - 0.0
26/10:45pm 12.2 7.2 4.6 59 3.5 W 20 26 11 14 1012.7 - 0.0
26/10:30pm 12.3 7.2 4.3 58 3.7 W 20 26 11 14 1012.8 - 0.0
26/10:15pm 12.6 7.7 4.1 56 3.9 W 19 24 10 13 1012.7 - 0.0
26/10:00pm 12.7 8.5 4.0 55 4.0 W 15 20 8 11 1012.9 - 0.0
26/09:45pm 12.7 9.2 3.7 54 4.1 W 11 17 6 9 1012.8 - 0.0
26/09:30pm 12.9 9.4 3.6 53 4.2 W 11 20 6 11 1012.7 - 0.0
26/09:15pm 13.3 9.4 3.6 52 4.4 W 13 20 7 11 1012.5 - 0.0
26/09:00pm 13.5 8.8 3.4 50 4.6 W 17 22 9 12 1012.5 - 0.0
26/08:45pm 13.6 8.3 3.0 48 4.8 W 20 26 11 14 1012.4 - 0.0
26/08:30pm 13.5 8.2 3.0 49 4.7 W 20 26 11 14 1012.4 - 0.0
26/08:15pm 13.3 8.2 2.9 49 4.6 W 19 26 10 14 1012.2 - 0.0
26/08:00pm 13.7 8.9 2.7 47 4.9 W 17 30 9 16 1012.0 - 0.0
26/07:45pm 13.8 9.0 2.7 47 5.0 W 17 24 9 13 1012.1 - 0.0
26/07:30pm 14.0 9.2 2.8 47 5.0 W 17 24 9 13 1012.0 - 0.0
26/07:15pm 14.1 9.8 3.2 48 4.9 W 15 24 8 13 1011.8 - 0.0
26/07:00pm 14.3 10.5 3.7 49 4.9 W 13 20 7 11 1011.6 - 0.0
26/06:45pm 14.6 10.3 5.1 53 4.5 W 17 26 9 14 1011.5 - 0.0
26/06:30pm 14.0 11.4 7.9 66 3.0 WSW 11 19 6 10 1011.4 - 0.0
26/06:15pm 14.3 12.7 8.0 66 3.2 SSW 6 9 3 5 1011.2 - 0.0
26/06:00pm 14.7 12.9 8.1 64 3.3 S 7 15 4 8 1011.0 - 0.0
26/05:45pm 14.9 13.2 8.2 64 3.4 SSW 7 11 4 6 1010.7 - 0.0
26/05:30pm 15.1 13.0 8.2 63 3.5 S 9 13 5 7 1010.5 - 0.0
26/05:15pm 15.4 13.2 7.9 61 3.8 S 9 17 5 9 1010.3 - 0.0
26/05:00pm 15.7 12.7 7.7 59 4.0 S 13 17 7 9 1010.0 - 0.0
26/04:45pm 16.0 12.9 7.4 56 4.3 S 13 17 7 9 1009.8 - 0.0
26/04:30pm 16.3 13.3 7.6 56 4.4 S 13 19 7 10 1009.6 - 0.0
26/04:15pm 16.5 13.5 7.7 56 4.5 S 13 17 7 9 1009.4 - 0.0
26/04:00pm 16.5 13.9 7.7 56 4.5 SSE 11 17 6 9 1009.2 - 0.0
26/03:45pm 16.8 14.1 7.4 54 4.7 SSE 11 15 6 8 1009.0 - 0.0
26/03:30pm 17.2 14.1 7.3 52 5.0 SE 13 17 7 9 1008.8 - 0.0
26/03:15pm 17.6 14.5 7.4 51 5.2 SSE 13 19 7 10 1008.9 - 0.0
26/03:00pm 17.8 15.5 7.5 51 5.2 SE 9 17 5 9 1008.8 - 0.0
26/02:45pm 17.8 14.3 7.1 49 5.4 SE 15 20 8 11 1008.9 - 0.0
26/02:30pm 18.6 15.2 7.5 48 5.7 ESE 15 20 8 11 1009.0 - 0.0
26/02:15pm 18.6 15.8 7.0 46 5.9 SE 11 19 6 10 1009.1 - 0.0
26/02:00pm 19.3 16.3 6.0 41 6.6 ESE 11 20 6 11 1009.2 - 0.0
26/01:45pm 19.4 16.9 3.6 35 7.5 N 6 11 3 6 1009.4 - 0.0
26/01:30pm 19.4 16.7 3.9 36 7.4 WNW 7 17 4 9 1009.5 - 0.0
26/01:15pm 19.4 16.5 4.4 37 7.2 WNW 9 20 5 11 1009.7 - 0.0
26/01:00pm 18.8 15.8 3.9 37 7.1 WNW 9 22 5 12 1009.9 - 0.0
26/12:45pm 18.8 16.1 3.8 37 7.1 W 7 17 4 9 1010.1 - 0.0
26/12:30pm 18.9 15.9 4.2 37 7.0 WSW 9 20 5 11 1010.3 - 0.0
26/12:15pm 18.7 15.0 4.7 39 6.8 WSW 13 26 7 14 1010.5 - 0.0
26/12:00pm 18.2 14.9 4.7 41 6.5 W 11 20 6 11 1010.7 - 0.0
26/11:45am 17.6 13.8 4.0 40 6.4 WNW 13 20 7 11 1010.9 - 0.0
26/11:30am 18.1 14.8 4.6 41 6.5 W 11 20 6 11 1011.1 - 0.0
26/11:15am 17.8 13.8 4.7 42 6.3 WSW 15 26 8 14 1011.4 - 0.0
26/11:00am 17.3 13.6 4.6 43 6.1 W 13 20 7 11 1011.6 - 0.0
26/10:45am 16.8 12.4 4.6 44 5.8 W 17 24 9 13 1011.9 - 0.0
26/10:30am 16.4 12.5 5.4 48 5.3 W 15 26 8 14 1012.2 - 0.0
26/10:15am 16.1 13.0 5.7 50 5.0 W 11 20 6 11 1012.4 - 0.0
26/10:00am 15.5 11.6 5.4 51 4.8 W 15 24 8 13 1012.5 - 0.0
26/09:45am 15.0 10.7 5.2 52 4.7 W 17 24 9 13 1012.6 - 0.0
26/09:30am 15.1 11.6 5.5 52 4.6 W 13 22 7 12 1012.7 - 0.0
26/09:15am 14.7 10.9 5.6 54 4.4 W 15 24 8 13 1012.9 - 0.0
26/09:00am 14.4 10.2 5.5 55 4.2 W 17 28 9 15 1013.0 - 2.9
26/08:45am 14.0 10.1 5.2 55 4.2 W 15 22 8 12 1013.0 - 2.9
26/08:30am 13.8 9.5 5.3 56 4.0 W 17 26 9 14 1013.1 - 2.9
26/08:15am 13.5 9.7 5.6 59 3.7 W 15 20 8 11 1013.1 - 2.9

Latest Capital City Observations: Canberra | Sydney | Melbourne | Brisbane | Adelaide | Perth | Hobart | Darwin

Other Formats:

Comma delimited format used in spreadsheet applications
http://www.bom.gov.au/fwo/IDN60901/IDN60901.95757.axf

JavaScript Object Notation format (JSON) in row-major order
http://www.bom.gov.au/fwo/IDN60901/IDN60901.95757.json